Time;durP1;ratioP1;P1;durP2;ratioP2;P2;SDS_P1;SDS_P2;PMS_P1;PMS_P2;Temp;Humidity;BMP_temperature;BMP_pressure;BME280_temperature;BME280_humidity;BME280_pressure;Samples;Min_cycle;Max_cycle;Signal;HPM_P1;HPM_P2
2023/11/12 00:02:22;;;;;;;8.30;3.20;;;;;;;;;;5036808;28;20550;-65
2023/11/12 00:04:48;;;;;;;4.65;2.70;;;;;;;;;;5038953;28;20029;-66
2023/11/12 00:07:14;;;;;;;5.18;4.28;;;;;;;;;;5033217;28;20033;-65
2023/11/12 00:09:40;;;;;;;5.47;3.65;;;;;;;;;;5017401;28;20021;-71
2023/11/12 00:12:08;;;;;;;6.95;4.80;;;;;;;;;;5036990;28;20112;-65
2023/11/12 00:14:35;;;;;;;7.70;4.72;;;;;;;;;;5018681;28;20025;-66
2023/11/12 00:17:01;;;;;;;9.15;4.35;;;;;;;;;;5036729;28;20037;-66
2023/11/12 00:19:27;;;;;;;10.43;3.53;;;;;;;;;;5026052;28;20130;-65
2023/11/12 00:21:53;;;;;;;9.80;5.70;;;;;;;;;;5018899;28;20059;-66
2023/11/12 00:24:19;;;;;;;10.57;4.78;;;;;;;;;;5026047;28;20080;-65
2023/11/12 00:26:45;;;;;;;7.05;3.60;;;;;;;;;;5039918;28;20048;-66
2023/11/12 00:29:11;;;;;;;6.38;3.33;;;;;;;;;;5045592;28;20060;-66
2023/11/12 00:31:37;;;;;;;4.88;2.63;;;;;;;;;;5018344;28;20510;-66
2023/11/12 00:34:03;;;;;;;3.92;2.80;;;;;;;;;;5047955;28;20050;-66
2023/11/12 00:36:30;;;;;;;4.00;2.50;;;;;;;;;;5035761;28;20486;-65
2023/11/12 00:38:56;;;;;;;4.40;3.30;;;;;;;;;;5021507;28;20021;-64
2023/11/12 00:41:22;;;;;;;7.22;3.90;;;;;;;;;;5015738;28;20276;-65
2023/11/12 00:43:48;;;;;;;5.68;2.95;;;;;;;;;;5033089;28;20036;-66
2023/11/12 00:46:14;;;;;;;4.10;2.42;;;;;;;;;;5033265;28;20029;-66
2023/11/12 00:48:43;;;;;;;6.78;3.20;;;;;;;;;;5033114;28;20040;-65
2023/11/12 00:51:09;;;;;;;3.67;2.72;;;;;;;;;;5036472;28;20029;-65
2023/11/12 00:53:35;;;;;;;3.00;2.40;;;;;;;;;;5034250;28;20041;-66
2023/11/12 00:56:02;;;;;;;4.00;2.38;;;;;;;;;;5010715;28;20112;-65
2023/11/12 00:58:28;;;;;;;5.60;2.65;;;;;;;;;;5027349;28;20025;-65
2023/11/12 01:00:54;;;;;;;2.50;2.30;;;;;;;;;;5032065;28;20555;-65
2023/11/12 01:03:20;;;;;;;3.20;2.10;;;;;;;;;;5018977;28;20128;-65
2023/11/12 01:05:47;;;;;;;6.10;2.72;;;;;;;;;;5036626;28;20719;-65
2023/11/12 01:08:13;;;;;;;4.05;2.72;;;;;;;;;;5032311;28;20575;-65
2023/11/12 01:10:39;;;;;;;6.20;2.88;;;;;;;;;;5034139;28;20025;-66
2023/11/12 01:13:06;;;;;;;5.45;2.63;;;;;;;;;;5030933;28;20090;-65
2023/11/12 01:15:33;;;;;;;3.85;2.53;;;;;;;;;;5040617;28;20541;-65
2023/11/12 01:18:01;;;;;;;4.25;2.33;;;;;;;;;;5036332;28;20592;-65
2023/11/12 01:20:27;;;;;;;4.07;2.47;;;;;;;;;;5036413;28;20048;-65
2023/11/12 01:22:53;;;;;;;5.43;2.40;;;;;;;;;;5023071;28;20509;-66
2023/11/12 01:25:19;;;;;;;4.25;2.42;;;;;;;;;;5039034;28;20102;-65
2023/11/12 01:27:46;;;;;;;4.18;2.38;;;;;;;;;;5045614;28;20113;-64
2023/11/12 01:30:12;;;;;;;2.55;2.13;;;;;;;;;;5039456;28;20364;-65
2023/11/12 01:32:38;;;;;;;6.63;2.65;;;;;;;;;;5037414;28;20056;-65
2023/11/12 01:35:05;;;;;;;6.25;2.35;;;;;;;;;;5037768;28;20040;-65
2023/11/12 01:37:31;;;;;;;4.00;2.35;;;;;;;;;;5028604;28;20044;-65
2023/11/12 01:39:57;;;;;;;5.38;2.25;;;;;;;;;;5036718;28;20079;-65
2023/11/12 01:42:25;;;;;;;2.88;2.25;;;;;;;;;;5037725;28;20074;-65
2023/11/12 01:44:51;;;;;;;4.43;2.58;;;;;;;;;;5028180;28;20030;-66
2023/11/12 01:47:18;;;;;;;6.65;2.22;;;;;;;;;;5038487;28;20040;-64
2023/11/12 01:49:45;;;;;;;8.25;2.63;;;;;;;;;;5040244;28;20021;-65
2023/11/12 01:52:11;;;;;;;2.92;2.05;;;;;;;;;;5034031;28;20517;-65
2023/11/12 01:54:38;;;;;;;3.13;2.50;;;;;;;;;;5038183;28;20021;-65
2023/11/12 01:57:04;;;;;;;7.25;2.30;;;;;;;;;;5023352;28;20059;-64
2023/11/12 01:59:34;;;;;;;3.38;2.28;;;;;;;;;;5033440;28;20079;-65
2023/11/12 02:02:00;;;;;;;3.00;1.90;;;;;;;;;;5037399;28;20448;-65
2023/11/12 02:04:27;;;;;;;6.88;1.77;;;;;;;;;;5039312;28;20024;-65
2023/11/12 02:06:54;;;;;;;4.53;1.98;;;;;;;;;;5035038;28;20076;-67
2023/11/12 02:09:22;;;;;;;2.15;1.95;;;;;;;;;;5033683;28;20128;-65
2023/11/12 02:11:49;;;;;;;5.40;2.08;;;;;;;;;;5011866;28;20029;-66
2023/11/12 02:14:16;;;;;;;2.92;2.38;;;;;;;;;;5035294;28;20434;-65
2023/11/12 02:16:42;;;;;;;3.00;2.10;;;;;;;;;;5031405;28;20029;-65
2023/11/12 02:19:22;;;;;;;3.97;2.40;;;;;;;;;;5031085;28;20025;-65
2023/11/12 02:21:48;;;;;;;2.50;1.90;;;;;;;;;;5041896;28;20035;-65
2023/11/12 02:24:14;;;;;;;5.00;1.95;;;;;;;;;;5026585;28;20028;-65
2023/11/12 02:26:41;;;;;;;3.90;2.17;;;;;;;;;;5038299;28;20034;-64
2023/11/12 02:29:07;;;;;;;4.03;1.90;;;;;;;;;;5045388;28;20441;-65
2023/11/12 02:31:33;;;;;;;5.72;2.03;;;;;;;;;;5038660;28;20048;-66
2023/11/12 02:33:59;;;;;;;4.18;2.08;;;;;;;;;;5040787;28;20399;-65
2023/11/12 02:36:26;;;;;;;3.67;1.90;;;;;;;;;;5038715;28;20056;-68
2023/11/12 02:38:52;;;;;;;5.70;2.20;;;;;;;;;;5018169;28;20036;-66
2023/11/12 02:41:20;;;;;;;6.90;2.10;;;;;;;;;;5041506;28;20505;-66
2023/11/12 02:43:46;;;;;;;2.58;1.77;;;;;;;;;;5034873;28;20059;-66
2023/11/12 02:46:15;;;;;;;2.25;1.80;;;;;;;;;;5015632;28;20033;-65
2023/11/12 02:49:02;;;;;;;3.53;2.30;;;;;;;;;;5010594;28;20033;-66
2023/11/12 02:51:28;;;;;;;3.15;2.22;;;;;;;;;;5000959;28;20037;-65
2023/11/12 02:53:54;;;;;;;8.32;2.30;;;;;;;;;;5029075;28;20024;-65
2023/11/12 02:56:22;;;;;;;2.10;1.90;;;;;;;;;;5034490;28;20573;-65
2023/11/12 02:58:49;;;;;;;2.13;1.92;;;;;;;;;;5043793;28;20669;-65
2023/11/12 03:01:15;;;;;;;6.70;2.05;;;;;;;;;;5038296;28;20033;-65
2023/11/12 03:03:41;;;;;;;4.63;2.10;;;;;;;;;;5039329;28;20196;-65
2023/11/12 03:06:08;;;;;;;4.40;1.90;;;;;;;;;;5038074;28;20028;-65
2023/11/12 03:08:34;;;;;;;4.65;2.20;;;;;;;;;;5037905;28;20021;-69
2023/11/12 03:11:00;;;;;;;2.80;2.00;;;;;;;;;;5035118;28;20105;-66
2023/11/12 03:13:26;;;;;;;3.65;2.05;;;;;;;;;;5041661;28;20033;-65
2023/11/12 03:15:53;;;;;;;4.15;2.05;;;;;;;;;;5035986;28;20667;-64
2023/11/12 03:18:19;;;;;;;2.90;2.40;;;;;;;;;;5037166;28;20098;-65
2023/11/12 03:20:46;;;;;;;6.38;2.10;;;;;;;;;;5043770;28;20029;-65
2023/11/12 03:23:12;;;;;;;2.58;1.85;;;;;;;;;;5037976;28;20111;-64
2023/11/12 03:25:38;;;;;;;2.92;1.83;;;;;;;;;;5031464;28;20114;-65
2023/11/12 03:28:04;;;;;;;7.40;2.67;;;;;;;;;;5034906;28;20474;-65
2023/11/12 03:30:30;;;;;;;11.07;2.20;;;;;;;;;;5040444;28;20573;-66
2023/11/12 03:32:57;;;;;;;9.13;2.20;;;;;;;;;;5026205;28;20087;-65
2023/11/12 03:35:24;;;;;;;7.45;2.20;;;;;;;;;;5042907;28;20507;-64
2023/11/12 03:37:50;;;;;;;5.00;2.00;;;;;;;;;;5019232;28;20475;-64
2023/11/12 03:40:16;;;;;;;3.92;2.10;;;;;;;;;;5038262;28;20514;-65
2023/11/12 03:42:42;;;;;;;3.55;2.63;;;;;;;;;;5037009;28;20021;-66
2023/11/12 03:45:09;;;;;;;2.88;1.90;;;;;;;;;;5036578;28;20025;-65
2023/11/12 03:47:35;;;;;;;3.50;2.28;;;;;;;;;;5034749;28;20351;-65
2023/11/12 03:50:01;;;;;;;3.05;1.85;;;;;;;;;;5040984;28;20037;-65
2023/11/12 03:52:27;;;;;;;3.83;2.22;;;;;;;;;;5041824;28;20040;-65
2023/11/12 03:54:53;;;;;;;4.47;2.10;;;;;;;;;;5042356;28;20559;-65
2023/11/12 03:57:20;;;;;;;5.38;2.22;;;;;;;;;;5042813;28;20033;-65
2023/11/12 03:59:51;;;;;;;3.20;2.05;;;;;;;;;;5035999;28;20473;-65
2023/11/12 04:02:17;;;;;;;5.65;2.67;;;;;;;;;;5038720;28;20028;-64
2023/11/12 04:04:43;;;;;;;5.18;2.20;;;;;;;;;;5039401;28;20422;-65
2023/11/12 04:07:09;;;;;;;4.28;2.40;;;;;;;;;;5041996;28;20034;-64
2023/11/12 04:09:35;;;;;;;4.70;2.00;;;;;;;;;;5039427;28;20070;-65
2023/11/12 04:12:02;;;;;;;5.75;2.10;;;;;;;;;;5040523;28;20029;-65
2023/11/12 04:14:28;;;;;;;4.05;2.35;;;;;;;;;;5037233;28;20632;-65
2023/11/12 04:16:54;;;;;;;5.55;2.60;;;;;;;;;;5040344;28;20032;-65
2023/11/12 04:19:20;;;;;;;4.85;2.35;;;;;;;;;;5041660;28;20604;-69
2023/11/12 04:21:47;;;;;;;5.43;2.30;;;;;;;;;;5035490;28;20028;-65
2023/11/12 04:24:13;;;;;;;5.53;2.40;;;;;;;;;;5023406;28;20050;-69
2023/11/12 04:26:39;;;;;;;5.30;2.28;;;;;;;;;;5039635;28;20052;-65
2023/11/12 04:29:08;;;;;;;2.33;2.05;;;;;;;;;;5043408;28;20449;-64
2023/11/12 04:31:35;;;;;;;7.30;2.80;;;;;;;;;;5046229;28;20060;-65
2023/11/12 04:34:01;;;;;;;5.18;2.40;;;;;;;;;;5040276;28;20032;-65
2023/11/12 04:36:28;;;;;;;4.60;2.15;;;;;;;;;;5042007;28;20493;-64
2023/11/12 04:38:57;;;;;;;6.32;2.22;;;;;;;;;;5041769;28;20171;-65
2023/11/12 04:41:24;;;;;;;4.35;2.20;;;;;;;;;;5042495;28;20414;-64
2023/11/12 04:43:50;;;;;;;2.55;2.20;;;;;;;;;;5021950;28;20822;-65
2023/11/12 04:46:19;;;;;;;6.60;2.10;;;;;;;;;;5036288;28;20171;-66
2023/11/12 04:48:45;;;;;;;4.60;2.45;;;;;;;;;;5040456;28;20026;-65
2023/11/12 04:51:11;;;;;;;6.35;2.20;;;;;;;;;;5042820;28;20037;-64
2023/11/12 04:53:39;;;;;;;3.90;2.40;;;;;;;;;;5048044;28;20021;-65
2023/11/12 04:56:08;;;;;;;8.70;2.45;;;;;;;;;;5043748;28;20382;-66
2023/11/12 04:58:35;;;;;;;3.05;2.17;;;;;;;;;;5045009;28;20026;-65
2023/11/12 05:01:03;;;;;;;6.82;2.33;;;;;;;;;;5047936;28;20033;-65
2023/11/12 05:03:31;;;;;;;5.45;3.03;;;;;;;;;;5047741;28;20395;-65
2023/11/12 05:05:59;;;;;;;4.70;2.33;;;;;;;;;;5026113;28;20033;-65
2023/11/12 05:08:25;;;;;;;5.40;2.75;;;;;;;;;;5047198;28;20025;-65
2023/11/12 05:10:51;;;;;;;7.25;2.75;;;;;;;;;;5054974;28;20026;-66
2023/11/12 05:13:17;;;;;;;6.32;2.35;;;;;;;;;;5047154;28;20025;-73
2023/11/12 05:15:44;;;;;;;4.80;2.75;;;;;;;;;;5049306;28;20409;-67
2023/11/12 05:18:10;;;;;;;8.15;3.00;;;;;;;;;;5035889;28;20037;-65
2023/11/12 05:20:36;;;;;;;6.22;2.53;;;;;;;;;;5042155;28;20392;-66
2023/11/12 05:23:02;;;;;;;6.43;2.40;;;;;;;;;;5045098;28;20064;-68
2023/11/12 05:25:29;;;;;;;3.50;2.20;;;;;;;;;;5030534;28;20179;-71
2023/11/12 05:27:55;;;;;;;12.23;2.70;;;;;;;;;;5025912;28;20107;-65
2023/11/12 05:30:23;;;;;;;5.55;3.10;;;;;;;;;;5044599;28;20123;-67
2023/11/12 05:32:49;;;;;;;3.85;2.55;;;;;;;;;;5039751;28;20029;-67
2023/11/12 05:35:16;;;;;;;4.03;2.63;;;;;;;;;;5042690;28;20410;-67
2023/11/12 05:37:43;;;;;;;7.30;2.58;;;;;;;;;;5029058;28;20037;-65
2023/11/12 05:40:09;;;;;;;3.05;2.20;;;;;;;;;;5023131;28;20564;-67
2023/11/12 05:42:35;;;;;;;2.67;2.10;;;;;;;;;;5037356;28;20056;-66
2023/11/12 05:45:01;;;;;;;4.60;2.70;;;;;;;;;;5043067;28;20044;-66
2023/11/12 05:47:27;;;;;;;6.15;2.40;;;;;;;;;;5050048;28;20034;-68
2023/11/12 05:49:53;;;;;;;4.53;2.13;;;;;;;;;;5042887;28;20056;-67
2023/11/12 05:52:19;;;;;;;2.08;1.85;;;;;;;;;;5020590;28;20435;-68
2023/11/12 05:54:46;;;;;;;3.08;2.22;;;;;;;;;;5035448;28;20024;-67
2023/11/12 05:57:13;;;;;;;4.78;2.00;;;;;;;;;;5040367;28;20166;-66
2023/11/12 05:59:39;;;;;;;2.03;1.73;;;;;;;;;;5044591;28;20551;-65
2023/11/12 06:02:05;;;;;;;2.45;1.92;;;;;;;;;;5039419;28;20032;-66
2023/11/12 06:04:32;;;;;;;3.80;2.20;;;;;;;;;;5040801;28;20045;-66
2023/11/12 06:06:58;;;;;;;4.13;2.20;;;;;;;;;;5047740;28;20106;-66
2023/11/12 06:09:24;;;;;;;3.80;2.20;;;;;;;;;;5035090;28;20035;-68
2023/11/12 06:11:53;;;;;;;3.90;2.25;;;;;;;;;;5044793;28;20108;-67
2023/11/12 06:14:21;;;;;;;7.38;2.22;;;;;;;;;;5028552;28;20053;-67
2023/11/12 06:16:47;;;;;;;4.68;2.38;;;;;;;;;;5041648;28;20896;-67
2023/11/12 06:19:14;;;;;;;5.78;1.90;;;;;;;;;;5032779;28;20041;-67
2023/11/12 06:21:40;;;;;;;3.65;2.17;;;;;;;;;;5040022;28;20036;-66
2023/11/12 06:24:06;;;;;;;3.00;1.70;;;;;;;;;;5039041;28;20032;-67
2023/11/12 06:26:33;;;;;;;2.35;2.08;;;;;;;;;;5040834;28;20036;-70
2023/11/12 06:28:59;;;;;;;3.60;2.28;;;;;;;;;;5042774;28;20053;-66
2023/11/12 06:31:26;;;;;;;3.47;1.70;;;;;;;;;;5028451;28;20029;-66
2023/11/12 06:33:52;;;;;;;4.50;1.90;;;;;;;;;;5041431;28;20036;-67
2023/11/12 06:36:19;;;;;;;4.85;1.80;;;;;;;;;;5024618;28;20028;-68
2023/11/12 06:38:45;;;;;;;2.70;2.03;;;;;;;;;;5032524;28;21887;-65
2023/11/12 06:41:11;;;;;;;2.28;1.73;;;;;;;;;;5021927;28;20508;-64
2023/11/12 06:43:38;;;;;;;3.38;2.08;;;;;;;;;;5038577;28;20028;-65
2023/11/12 06:46:07;;;;;;;3.17;1.77;;;;;;;;;;5042472;28;20400;-65
2023/11/12 06:48:34;;;;;;;4.15;2.10;;;;;;;;;;5035824;28;20641;-65
2023/11/12 06:51:00;;;;;;;4.22;2.00;;;;;;;;;;5040597;28;20386;-65
2023/11/12 06:53:26;;;;;;;4.55;2.10;;;;;;;;;;5035362;28;20029;-65
2023/11/12 06:55:53;;;;;;;2.83;1.95;;;;;;;;;;5047895;28;20040;-64
2023/11/12 06:58:20;;;;;;;3.00;1.90;;;;;;;;;;5020545;28;20627;-65
2023/11/12 07:00:46;;;;;;;4.60;1.98;;;;;;;;;;5036725;28;20032;-64
2023/11/12 07:03:12;;;;;;;2.63;2.00;;;;;;;;;;5038179;28;20172;-64
2023/11/12 07:05:39;;;;;;;5.25;2.72;;;;;;;;;;5041825;28;20498;-66
2023/11/12 07:08:05;;;;;;;3.28;2.25;;;;;;;;;;5040494;28;20033;-64
2023/11/12 07:10:31;;;;;;;2.20;1.80;;;;;;;;;;5017250;28;20035;-64
2023/11/12 07:12:59;;;;;;;5.38;2.08;;;;;;;;;;5040746;28;20716;-64
2023/11/12 07:15:25;;;;;;;8.73;2.33;;;;;;;;;;5020006;28;20587;-64
2023/11/12 07:17:52;;;;;;;9.82;2.25;;;;;;;;;;5036181;28;20044;-65
2023/11/12 07:20:21;;;;;;;4.88;2.15;;;;;;;;;;5039680;28;20363;-64
2023/11/12 07:22:49;;;;;;;4.28;2.05;;;;;;;;;;5035624;28;20029;-63
2023/11/12 07:25:15;;;;;;;10.68;2.20;;;;;;;;;;5041376;28;20124;-63
2023/11/12 07:27:43;;;;;;;8.80;2.33;;;;;;;;;;5046192;28;20029;-63
2023/11/12 07:30:10;;;;;;;2.92;2.05;;;;;;;;;;5044696;28;20063;-63
2023/11/12 07:32:36;;;;;;;2.40;1.73;;;;;;;;;;5041564;28;20064;-65
2023/11/12 07:35:04;;;;;;;3.20;2.08;;;;;;;;;;5040915;28;20047;-64
2023/11/12 07:37:30;;;;;;;4.18;1.88;;;;;;;;;;5044190;28;20032;-65
2023/11/12 07:39:56;;;;;;;2.60;1.90;;;;;;;;;;5036595;28;20110;-65
2023/11/12 07:42:22;;;;;;;6.20;1.70;;;;;;;;;;5040742;28;20476;-65
2023/11/12 07:44:49;;;;;;;5.72;2.08;;;;;;;;;;5035412;28;20037;-68
2023/11/12 07:47:15;;;;;;;3.50;1.90;;;;;;;;;;5018579;28;20028;-67
2023/11/12 07:49:41;;;;;;;2.47;1.73;;;;;;;;;;5036532;28;20028;-65
2023/11/12 07:52:07;;;;;;;1.90;1.67;;;;;;;;;;5031661;28;20055;-66
2023/11/12 07:54:33;;;;;;;1.77;1.67;;;;;;;;;;5017347;28;20489;-68
2023/11/12 07:56:59;;;;;;;2.15;1.67;;;;;;;;;;5038936;28;20029;-66
2023/11/12 07:59:25;;;;;;;1.80;1.70;;;;;;;;;;5036330;28;20063;-65
2023/11/12 08:01:51;;;;;;;2.55;2.35;;;;;;;;;;5032110;28;20048;-68
2023/11/12 08:04:17;;;;;;;2.22;1.60;;;;;;;;;;5031925;28;20049;-65
2023/11/12 08:06:48;;;;;;;1.95;1.80;;;;;;;;;;5032980;28;21360;-67
2023/11/12 08:09:14;;;;;;;2.47;1.63;;;;;;;;;;5042318;28;20033;-65
2023/11/12 08:11:44;;;;;;;2.22;1.88;;;;;;;;;;5016138;28;20025;-66
2023/11/12 08:14:10;;;;;;;1.70;1.60;;;;;;;;;;5027355;28;20029;-67
2023/11/12 08:16:36;;;;;;;2.33;1.60;;;;;;;;;;5031621;28;20040;-66
2023/11/12 08:19:02;;;;;;;1.67;1.58;;;;;;;;;;5033743;28;20025;-67
2023/11/12 08:21:29;;;;;;;1.70;1.60;;;;;;;;;;5032496;28;20036;-66
2023/11/12 08:23:55;;;;;;;4.03;1.63;;;;;;;;;;5030546;28;20060;-67
2023/11/12 08:26:21;;;;;;;2.72;1.75;;;;;;;;;;5009915;28;20028;-67
2023/11/12 08:28:47;;;;;;;3.22;1.88;;;;;;;;;;5041263;28;20041;-67
2023/11/12 08:31:15;;;;;;;2.83;1.80;;;;;;;;;;5044001;28;20077;-68
2023/11/12 08:33:41;;;;;;;6.93;2.10;;;;;;;;;;5037632;28;20025;-67
2023/11/12 08:36:09;;;;;;;4.78;1.80;;;;;;;;;;5036926;28;20399;-67
2023/11/12 08:38:35;;;;;;;2.78;1.50;;;;;;;;;;5013488;28;20033;-67
2023/11/12 08:41:02;;;;;;;2.72;1.60;;;;;;;;;;5034745;28;20354;-67
2023/11/12 08:43:28;;;;;;;2.70;1.58;;;;;;;;;;5029026;28;20021;-67
2023/11/12 08:45:54;;;;;;;1.40;1.30;;;;;;;;;;5029257;28;20036;-68
2023/11/12 08:48:21;;;;;;;2.72;1.77;;;;;;;;;;5029159;28;20039;-68
2023/11/12 08:50:47;;;;;;;1.50;1.40;;;;;;;;;;5031874;28;20457;-70
2023/11/12 08:53:14;;;;;;;1.30;1.30;;;;;;;;;;5028059;28;20025;-68
2023/11/12 08:55:41;;;;;;;1.75;1.50;;;;;;;;;;5028178;28;20029;-67
2023/11/12 08:58:07;;;;;;;1.35;1.27;;;;;;;;;;5029103;28;20033;-67
2023/11/12 09:00:33;;;;;;;3.03;1.33;;;;;;;;;;5026405;28;20429;-68
2023/11/12 09:02:59;;;;;;;1.10;1.10;;;;;;;;;;5026944;28;20052;-66
2023/11/12 09:05:25;;;;;;;1.63;1.52;;;;;;;;;;5031596;28;20043;-67
2023/11/12 09:07:53;;;;;;;2.55;1.90;;;;;;;;;;5031317;28;20044;-67
2023/11/12 09:10:19;;;;;;;2.55;1.35;;;;;;;;;;5012340;28;20641;-67
2023/11/12 09:12:45;;;;;;;1.58;1.40;;;;;;;;;;5025390;28;20164;-67
2023/11/12 09:15:13;;;;;;;1.45;1.35;;;;;;;;;;5030671;28;20147;-66
2023/11/12 09:17:39;;;;;;;1.90;1.48;;;;;;;;;;5030770;28;20115;-66
2023/11/12 09:20:08;;;;;;;1.20;1.20;;;;;;;;;;5035190;28;20664;-67
2023/11/12 09:22:34;;;;;;;1.23;1.20;;;;;;;;;;5033514;28;20029;-66
2023/11/12 09:25:00;;;;;;;1.20;1.20;;;;;;;;;;5033249;28;20068;-66
2023/11/12 09:27:28;;;;;;;1.20;1.20;;;;;;;;;;5034893;28;20210;-67
2023/11/12 09:29:54;;;;;;;1.48;1.30;;;;;;;;;;5032310;28;20566;-67
2023/11/12 09:32:20;;;;;;;1.15;1.15;;;;;;;;;;5033626;28;20108;-67
2023/11/12 09:34:47;;;;;;;1.30;1.30;;;;;;;;;;5030422;28;20221;-67
2023/11/12 09:37:13;;;;;;;1.30;1.20;;;;;;;;;;5038173;28;20043;-68
2023/11/12 09:39:39;;;;;;;1.10;1.10;;;;;;;;;;5040284;28;20037;-67
2023/11/12 09:42:06;;;;;;;1.38;1.30;;;;;;;;;;5027699;28;20165;-67
2023/11/12 09:44:35;;;;;;;1.33;1.30;;;;;;;;;;5007492;28;20025;-67
2023/11/12 09:47:27;;;;;;;1.40;1.30;;;;;;;;;;5031937;28;20037;-67
2023/11/12 09:49:54;;;;;;;1.73;1.40;;;;;;;;;;5016695;28;20045;-68
2023/11/12 09:52:23;;;;;;;2.05;1.50;;;;;;;;;;5030966;28;20059;-66
2023/11/12 09:54:51;;;;;;;1.50;1.40;;;;;;;;;;5033281;28;20032;-67
2023/11/12 09:57:18;;;;;;;1.65;1.27;;;;;;;;;;5032481;28;20049;-68
2023/11/12 09:59:44;;;;;;;1.40;1.40;;;;;;;;;;5034979;28;20029;-69
2023/11/12 10:02:10;;;;;;;1.65;1.55;;;;;;;;;;5036223;28;20414;-67
2023/11/12 10:04:36;;;;;;;1.63;1.33;;;;;;;;;;5038259;28;20033;-67
2023/11/12 10:07:04;;;;;;;1.40;1.30;;;;;;;;;;5003886;28;20450;-68
2023/11/12 10:09:31;;;;;;;4.32;2.00;;;;;;;;;;5015873;28;21176;-67
2023/11/12 10:12:05;;;;;;;4.78;2.70;;;;;;;;;;5031273;28;20053;-67
2023/11/12 10:14:31;;;;;;;3.50;1.85;;;;;;;;;;5035521;28;20037;-67
2023/11/12 10:17:05;;;;;;;2.80;1.88;;;;;;;;;;5039342;28;20090;-68
2023/11/12 10:19:31;;;;;;;2.35;1.70;;;;;;;;;;5021074;28;20669;-67
2023/11/12 10:22:01;;;;;;;3.85;2.30;;;;;;;;;;5035480;28;20033;-68
2023/11/12 10:24:28;;;;;;;2.15;1.80;;;;;;;;;;5039827;28;20531;-67
2023/11/12 10:26:56;;;;;;;3.35;1.73;;;;;;;;;;5036961;28;20128;-67
2023/11/12 10:29:23;;;;;;;2.00;1.80;;;;;;;;;;5031607;28;20929;-67
2023/11/12 10:31:50;;;;;;;2.00;1.83;;;;;;;;;;5038215;28;20025;-67
2023/11/12 10:34:17;;;;;;;2.30;1.98;;;;;;;;;;5032236;28;20017;-67
2023/11/12 10:37:02;;;;;;;2.42;1.60;;;;;;;;;;5042395;28;20068;-67
2023/11/12 10:39:28;;;;;;;;;;;;;;;;;;5039699;28;20040;-67
2023/11/12 10:41:58;;;;;;;3.20;1.70;;;;;;;;;;5018620;28;19916;-67
2023/11/12 10:44:25;;;;;;;4.30;1.90;;;;;;;;;;5032605;28;20095;-71
2023/11/12 10:46:53;;;;;;;2.47;1.70;;;;;;;;;;5040176;28;20380;-68
2023/11/12 10:49:20;;;;;;;2.83;2.00;;;;;;;;;;5038794;28;20067;-67
2023/11/12 10:51:48;;;;;;;3.17;2.00;;;;;;;;;;5041086;28;20055;-67
2023/11/12 10:54:14;;;;;;;4.13;3.35;;;;;;;;;;5033333;28;20026;-67
2023/11/12 10:56:40;;;;;;;5.38;3.72;;;;;;;;;;5032324;28;20079;-67
2023/11/12 10:59:08;;;;;;;4.47;3.22;;;;;;;;;;5037770;28;20453;-67
2023/11/12 11:01:34;;;;;;;2.30;2.08;;;;;;;;;;5039405;28;20217;-67
2023/11/12 11:04:01;;;;;;;2.80;2.15;;;;;;;;;;5041292;28;20060;-71
2023/11/12 11:06:28;;;;;;;4.72;2.20;;;;;;;;;;5035254;28;20367;-67
2023/11/12 11:08:55;;;;;;;3.95;2.10;;;;;;;;;;5032168;28;20498;-68
2023/11/12 11:11:22;;;;;;;2.95;2.20;;;;;;;;;;5037052;28;20025;-67
2023/11/12 11:13:48;;;;;;;5.40;2.47;;;;;;;;;;5043776;28;20033;-68
2023/11/12 11:16:34;;;;;;;11.05;4.82;;;;;;;;;;5015744;28;20541;-67
2023/11/12 11:19:00;;;;;;;14.45;7.55;;;;;;;;;;5033610;28;20031;-68
2023/11/12 11:21:27;;;;;;;10.32;6.00;;;;;;;;;;5031967;28;20138;-68
2023/11/12 11:23:55;;;;;;;3.85;2.85;;;;;;;;;;5036887;28;20534;-68
2023/11/12 11:26:27;;;;;;;6.53;4.18;;;;;;;;;;5038246;28;20039;-68
2023/11/12 11:29:07;;;;;;;3.58;3.17;;;;;;;;;;5037842;28;20048;-68
2023/11/12 11:31:33;;;;;;;4.57;3.13;;;;;;;;;;5041881;28;20123;-67
2023/11/12 11:34:00;;;;;;;5.63;3.38;;;;;;;;;;5033888;28;20082;-68
2023/11/12 11:36:27;;;;;;;6.82;2.95;;;;;;;;;;5035791;28;20051;-68
2023/11/12 11:39:12;;;;;;;5.50;2.92;;;;;;;;;;5039284;28;20035;-68
2023/11/12 11:41:54;;;;;;;9.68;3.20;;;;;;;;;;5031675;28;20024;-67
2023/11/12 11:44:44;;;;;;;5.22;3.47;;;;;;;;;;5031363;28;20116;-67
2023/11/12 11:47:25;;;;;;;4.22;2.35;;;;;;;;;;5035737;28;20398;-70
2023/11/12 11:50:11;;;;;;;4.35;2.03;;;;;;;;;;5024077;28;20033;-68
2023/11/12 11:52:41;;;;;;;8.85;3.38;;;;;;;;;;5043864;28;20467;-70
2023/11/12 11:55:29;;;;;;;5.00;2.45;;;;;;;;;;5032047;28;20021;-67
2023/11/12 11:58:00;;;;;;;3.67;2.10;;;;;;;;;;5039150;28;20029;-66
2023/11/12 12:00:26;;;;;;;16.38;2.80;;;;;;;;;;5040764;28;20025;-71
2023/11/12 12:02:53;;;;;;;2.40;2.10;;;;;;;;;;5043408;28;20544;-68
2023/11/12 12:05:33;;;;;;;3.40;2.08;;;;;;;;;;5041204;28;20033;-67
2023/11/12 12:08:00;;;;;;;4.13;2.97;;;;;;;;;;5029811;28;20038;-70
2023/11/12 12:10:28;;;;;;;6.30;2.40;;;;;;;;;;5041299;28;20389;-70
2023/11/12 12:12:54;;;;;;;6.78;2.30;;;;;;;;;;5036775;28;20049;-67
2023/11/12 12:15:21;;;;;;;7.20;2.78;;;;;;;;;;5037233;28;20025;-67
2023/11/12 12:17:47;;;;;;;4.25;2.60;;;;;;;;;;5036961;28;20040;-68
2023/11/12 12:20:13;;;;;;;4.93;2.20;;;;;;;;;;5038628;28;20025;-66
2023/11/12 12:22:40;;;;;;;14.25;6.07;;;;;;;;;;5035928;28;20043;-66
2023/11/12 12:25:09;;;;;;;5.97;3.10;;;;;;;;;;5022062;28;20100;-68
2023/11/12 12:27:35;;;;;;;6.60;3.65;;;;;;;;;;5021359;28;20029;-67
2023/11/12 12:30:01;;;;;;;9.20;4.35;;;;;;;;;;5037669;28;20423;-68
2023/11/12 12:32:28;;;;;;;9.38;6.10;;;;;;;;;;5043253;28;20029;-67
2023/11/12 12:34:59;;;;;;;11.85;3.90;;;;;;;;;;5035106;28;20384;-70
2023/11/12 12:37:27;;;;;;;6.25;2.88;;;;;;;;;;5033170;28;20026;-67
2023/11/12 12:40:01;;;;;;;9.63;2.53;;;;;;;;;;5042479;28;20093;-67
2023/11/12 12:42:27;;;;;;;6.35;2.60;;;;;;;;;;5038418;28;20103;-68
2023/11/12 12:44:54;;;;;;;13.57;7.75;;;;;;;;;;5031321;28;20029;-67
2023/11/12 12:47:30;;;;;;;7.70;4.35;;;;;;;;;;5038712;28;20053;-68
2023/11/12 12:49:58;;;;;;;6.15;4.30;;;;;;;;;;5035328;28;20068;-67
2023/11/12 12:52:25;;;;;;;16.10;9.75;;;;;;;;;;5035572;28;20539;-68
2023/11/12 12:54:53;;;;;;;17.40;10.85;;;;;;;;;;5035771;28;20375;-68
2023/11/12 12:57:23;;;;;;;13.60;10.23;;;;;;;;;;5034893;28;20405;-68
2023/11/12 12:59:50;;;;;;;7.20;4.72;;;;;;;;;;5017630;28;20064;-67
2023/11/12 13:02:16;;;;;;;6.15;3.92;;;;;;;;;;5024924;28;20032;-67
2023/11/12 13:04:46;;;;;;;6.47;4.05;;;;;;;;;;5039273;28;20123;-68
2023/11/12 13:07:12;;;;;;;5.97;3.60;;;;;;;;;;5010692;28;20025;-70
2023/11/12 13:09:39;;;;;;;5.35;3.13;;;;;;;;;;5013089;28;20029;-69
2023/11/12 13:12:05;;;;;;;9.43;4.07;;;;;;;;;;5040856;28;20029;-68
2023/11/12 13:14:32;;;;;;;8.57;3.28;;;;;;;;;;5037050;28;20029;-68
2023/11/12 13:17:01;;;;;;;10.60;3.58;;;;;;;;;;5035781;28;20415;-66
2023/11/12 13:19:27;;;;;;;5.65;2.97;;;;;;;;;;5040368;28;20059;-68
2023/11/12 13:21:53;;;;;;;7.55;2.95;;;;;;;;;;5037510;28;20094;-69
2023/11/12 13:24:20;;;;;;;7.35;3.10;;;;;;;;;;5018405;28;20045;-68
2023/11/12 13:26:48;;;;;;;6.68;2.67;;;;;;;;;;5036235;28;20045;-69
2023/11/12 13:29:15;;;;;;;6.28;3.65;;;;;;;;;;5047235;28;20407;-68
2023/11/12 13:31:41;;;;;;;9.13;2.60;;;;;;;;;;5044781;28;20025;-69
2023/11/12 13:34:08;;;;;;;7.20;2.45;;;;;;;;;;5036715;28;20108;-69
2023/11/12 13:36:36;;;;;;;9.50;3.53;;;;;;;;;;5040754;28;20398;-69
2023/11/12 13:39:03;;;;;;;6.35;2.42;;;;;;;;;;5018630;28;20518;-69
2023/11/12 13:41:29;;;;;;;8.32;2.50;;;;;;;;;;5035929;28;20025;-69
2023/11/12 13:43:56;;;;;;;5.47;2.60;;;;;;;;;;5035753;28;20094;-68
2023/11/12 13:46:22;;;;;;;7.18;2.60;;;;;;;;;;5041928;28;20083;-68
2023/11/12 13:48:49;;;;;;;10.60;2.55;;;;;;;;;;5034949;28;20033;-68
2023/11/12 13:51:17;;;;;;;4.05;2.60;;;;;;;;;;5040440;28;20383;-68
2023/11/12 13:53:48;;;;;;;6.72;2.85;;;;;;;;;;5036392;28;20359;-69
2023/11/12 13:56:18;;;;;;;6.63;3.10;;;;;;;;;;5033979;28;20033;-68
2023/11/12 13:58:50;;;;;;;7.88;4.40;;;;;;;;;;5033722;28;20017;-69
2023/11/12 14:01:24;;;;;;;9.25;3.78;;;;;;;;;;5032326;28;20035;-69
2023/11/12 14:03:50;;;;;;;8.15;2.65;;;;;;;;;;5028818;28;20061;-69
2023/11/12 14:06:17;;;;;;;8.73;3.70;;;;;;;;;;5028163;28;20028;-69
2023/11/12 14:08:45;;;;;;;9.07;3.42;;;;;;;;;;5028754;28;20413;-72
2023/11/12 14:11:12;;;;;;;14.82;3.60;;;;;;;;;;5039833;28;20039;-71
2023/11/12 14:13:43;;;;;;;8.48;3.22;;;;;;;;;;5039971;28;20032;-70
2023/11/12 14:16:12;;;;;;;11.18;4.40;;;;;;;;;;5041306;28;20087;-71
2023/11/12 14:18:44;;;;;;;9.00;3.70;;;;;;;;;;5046369;28;20410;-70
2023/11/12 14:21:11;;;;;;;13.63;3.80;;;;;;;;;;5039468;28;20031;-70
2023/11/12 14:23:40;;;;;;;8.05;3.17;;;;;;;;;;5040128;28;20355;-70
2023/11/12 14:26:09;;;;;;;11.73;4.68;;;;;;;;;;5037203;28;20090;-70
2023/11/12 14:28:35;;;;;;;8.98;3.63;;;;;;;;;;5031132;28;20033;-70
2023/11/12 14:31:10;;;;;;;6.82;2.70;;;;;;;;;;5029334;28;20527;-69
2023/11/12 14:33:38;;;;;;;3.45;2.75;;;;;;;;;;5037328;28;20081;-70
2023/11/12 14:36:06;;;;;;;9.57;3.00;;;;;;;;;;5034503;28;20021;-70
2023/11/12 14:38:34;;;;;;;8.45;3.50;;;;;;;;;;5032360;28;20123;-70
2023/11/12 14:41:00;;;;;;;7.55;3.80;;;;;;;;;;5031619;28;20024;-70
2023/11/12 14:43:27;;;;;;;6.78;3.50;;;;;;;;;;5039565;28;20446;-70
2023/11/12 14:45:53;;;;;;;9.45;4.15;;;;;;;;;;5037606;28;20029;-70